sensor_id;sensor_type;location;lat;lon;timestamp;temperature;humidity
29207;DHT22;16247;50.840;4.382;2022-10-15T00:06:30;15.10;99.90
29207;DHT22;16247;50.840;4.382;2022-10-15T01:22:15;15.00;99.90
29207;DHT22;16247;50.840;4.382;2022-10-15T02:17:30;15.00;99.90
29207;DHT22;16247;50.840;4.382;2022-10-15T02:20:54;14.90;99.90
29207;DHT22;16247;50.840;4.382;2022-10-15T02:27:20;15.00;99.90
29207;DHT22;16247;50.840;4.382;2022-10-15T02:30:00;14.90;99.90
29207;DHT22;16247;50.840;4.382;2022-10-15T02:32:59;14.90;99.90
29207;DHT22;16247;50.840;4.382;2022-10-15T02:35:39;14.80;99.90
29207;DHT22;16247;50.840;4.382;2022-10-15T02:41:41;14.80;99.90
29207;DHT22;16247;50.840;4.382;2022-10-15T03:23:02;14.60;99.90
29207;DHT22;16247;50.840;4.382;2022-10-15T03:25:28;14.60;99.90
29207;DHT22;16247;50.840;4.382;2022-10-15T03:27:55;14.50;99.90
29207;DHT22;16247;50.840;4.382;2022-10-15T03:30:50;14.70;99.90
29207;DHT22;16247;50.840;4.382;2022-10-15T03:33:24;14.70;99.90
29207;DHT22;16247;50.840;4.382;2022-10-15T03:36:09;14.60;99.90
29207;DHT22;16247;50.840;4.382;2022-10-15T03:39:14;14.60;99.90
29207;DHT22;16247;50.840;4.382;2022-10-15T03:48:12;14.50;99.90
29207;DHT22;16247;50.840;4.382;2022-10-15T03:51:00;14.50;99.90
29207;DHT22;16247;50.840;4.382;2022-10-15T04:21:08;14.20;99.90
29207;DHT22;16247;50.840;4.382;2022-10-15T04:23:45;14.20;99.90
29207;DHT22;16247;50.840;4.382;2022-10-15T04:26:59;14.20;99.90
29207;DHT22;16247;50.840;4.382;2022-10-15T04:30:10;14.10;99.90
29207;DHT22;16247;50.840;4.382;2022-10-15T04:32:58;14.20;99.90
29207;DHT22;16247;50.840;4.382;2022-10-15T04:38:02;14.00;99.90
29207;DHT22;16247;50.840;4.382;2022-10-15T04:47:43;14.20;99.90
29207;DHT22;16247;50.840;4.382;2022-10-15T05:06:31;14.30;99.90
29207;DHT22;16247;50.840;4.382;2022-10-15T05:10:01;14.40;99.90
29207;DHT22;16247;50.840;4.382;2022-10-15T05:12:56;14.30;99.90
29207;DHT22;16247;50.840;4.382;2022-10-15T05:15:55;14.40;99.90
29207;DHT22;16247;50.840;4.382;2022-10-15T05:22:05;14.50;99.90
29207;DHT22;16247;50.840;4.382;2022-10-15T05:24:32;14.40;99.90
29207;DHT22;16247;50.840;4.382;2022-10-15T05:27:28;14.60;99.90
29207;DHT22;16247;50.840;4.382;2022-10-15T05:51:23;14.60;99.90
29207;DHT22;16247;50.840;4.382;2022-10-15T05:57:09;14.80;99.90
29207;DHT22;16247;50.840;4.382;2022-10-15T06:12:54;14.80;99.90
29207;DHT22;16247;50.840;4.382;2022-10-15T06:15:22;14.70;99.90
29207;DHT22;16247;50.840;4.382;2022-10-15T06:17:53;14.70;99.90
29207;DHT22;16247;50.840;4.382;2022-10-15T06:20:19;14.70;99.90
29207;DHT22;16247;50.840;4.382;2022-10-15T06:22:46;14.80;99.90
29207;DHT22;16247;50.840;4.382;2022-10-15T06:25:19;14.90;99.90
29207;DHT22;16247;50.840;4.382;2022-10-15T06:27:48;14.90;99.90
29207;DHT22;16247;50.840;4.382;2022-10-15T06:30:18;14.90;99.90
29207;DHT22;16247;50.840;4.382;2022-10-15T06:32:51;14.90;99.90
29207;DHT22;16247;50.840;4.382;2022-10-15T06:35:20;14.90;99.90
29207;DHT22;16247;50.840;4.382;2022-10-15T06:37:46;15.00;99.90
29207;DHT22;16247;50.840;4.382;2022-10-15T06:40:12;15.00;99.90
29207;DHT22;16247;50.840;4.382;2022-10-15T06:42:39;15.10;99.90
29207;DHT22;16247;50.840;4.382;2022-10-15T06:45:30;15.10;99.90
29207;DHT22;16247;50.840;4.382;2022-10-15T06:48:08;15.30;99.90
29207;DHT22;16247;50.840;4.382;2022-10-15T06:50:37;15.20;99.90
29207;DHT22;16247;50.840;4.382;2022-10-15T06:53:07;15.30;99.90
29207;DHT22;16247;50.840;4.382;2022-10-15T06:55:35;15.10;99.90
29207;DHT22;16247;50.840;4.382;2022-10-15T06:58:04;15.10;99.90
29207;DHT22;16247;50.840;4.382;2022-10-15T07:00:30;15.30;99.90
29207;DHT22;16247;50.840;4.382;2022-10-15T07:03:04;15.40;99.90
29207;DHT22;16247;50.840;4.382;2022-10-15T07:05:32;15.50;99.90
29207;DHT22;16247;50.840;4.382;2022-10-15T07:08:00;15.40;99.90
29207;DHT22;16247;50.840;4.382;2022-10-15T07:10:26;15.40;99.90
29207;DHT22;16247;50.840;4.382;2022-10-15T07:13:01;15.40;99.90
29207;DHT22;16247;50.840;4.382;2022-10-15T07:15:27;15.60;99.90
29207;DHT22;16247;50.840;4.382;2022-10-15T07:17:54;15.70;99.90
29207;DHT22;16247;50.840;4.382;2022-10-15T07:20:28;15.50;99.90
29207;DHT22;16247;50.840;4.382;2022-10-15T07:22:59;15.40;99.90
29207;DHT22;16247;50.840;4.382;2022-10-15T07:25:26;15.60;99.90
29207;DHT22;16247;50.840;4.382;2022-10-15T07:27:52;15.40;99.90
29207;DHT22;16247;50.840;4.382;2022-10-15T07:30:23;15.50;99.90
29207;DHT22;16247;50.840;4.382;2022-10-15T07:32:51;15.50;99.90
29207;DHT22;16247;50.840;4.382;2022-10-15T07:35:17;15.70;99.90
29207;DHT22;16247;50.840;4.382;2022-10-15T07:37:43;15.60;99.90
29207;DHT22;16247;50.840;4.382;2022-10-15T07:40:09;15.50;99.90
29207;DHT22;16247;50.840;4.382;2022-10-15T07:42:35;15.70;99.90
29207;DHT22;16247;50.840;4.382;2022-10-15T07:45:02;15.80;99.90
29207;DHT22;16247;50.840;4.382;2022-10-15T07:47:27;15.70;99.90
29207;DHT22;16247;50.840;4.382;2022-10-15T07:49:53;15.80;99.90
29207;DHT22;16247;50.840;4.382;2022-10-15T07:52:19;15.80;99.90
29207;DHT22;16247;50.840;4.382;2022-10-15T07:54:46;15.80;99.90
29207;DHT22;16247;50.840;4.382;2022-10-15T07:57:16;16.20;99.90
29207;DHT22;16247;50.840;4.382;2022-10-15T07:59:43;16.00;99.90
29207;DHT22;16247;50.840;4.382;2022-10-15T08:02:16;16.20;99.90
29207;DHT22;16247;50.840;4.382;2022-10-15T08:04:42;16.20;99.90
29207;DHT22;16247;50.840;4.382;2022-10-15T08:07:08;16.30;99.90
29207;DHT22;16247;50.840;4.382;2022-10-15T08:09:34;16.10;99.90
29207;DHT22;16247;50.840;4.382;2022-10-15T08:12:00;16.10;99.90
29207;DHT22;16247;50.840;4.382;2022-10-15T08:14:26;16.10;99.90
29207;DHT22;16247;50.840;4.382;2022-10-15T08:16:52;16.20;99.90
29207;DHT22;16247;50.840;4.382;2022-10-15T08:19:18;16.20;99.90
29207;DHT22;16247;50.840;4.382;2022-10-15T08:21:45;16.10;99.90
29207;DHT22;16247;50.840;4.382;2022-10-15T08:24:11;16.20;99.90
29207;DHT22;16247;50.840;4.382;2022-10-15T08:26:43;16.10;99.90
29207;DHT22;16247;50.840;4.382;2022-10-15T08:29:09;16.20;99.90
29207;DHT22;16247;50.840;4.382;2022-10-15T08:31:36;16.40;99.90
29207;DHT22;16247;50.840;4.382;2022-10-15T08:34:02;16.50;99.90
29207;DHT22;16247;50.840;4.382;2022-10-15T08:36:28;16.70;99.90
29207;DHT22;16247;50.840;4.382;2022-10-15T08:38:53;17.10;99.90
29207;DHT22;16247;50.840;4.382;2022-10-15T08:41:52;17.20;99.90
29207;DHT22;16247;50.840;4.382;2022-10-15T08:44:27;16.80;99.90
29207;DHT22;16247;50.840;4.382;2022-10-15T08:47:33;16.70;99.90
29207;DHT22;16247;50.840;4.382;2022-10-15T08:52:58;16.60;99.90
29207;DHT22;16247;50.840;4.382;2022-10-15T08:55:34;16.60;99.90
29207;DHT22;16247;50.840;4.382;2022-10-15T08:58:17;16.60;99.90
29207;DHT22;16247;50.840;4.382;2022-10-15T09:00:58;16.80;99.90
29207;DHT22;16247;50.840;4.382;2022-10-15T09:14:05;17.00;99.90
29207;DHT22;16247;50.840;4.382;2022-10-15T09:16:38;17.50;99.90
29207;DHT22;16247;50.840;4.382;2022-10-15T09:22:38;17.00;99.90
29207;DHT22;16247;50.840;4.382;2022-10-15T09:25:22;16.90;99.90
29207;DHT22;16247;50.840;4.382;2022-10-15T09:27:51;17.00;99.90
29207;DHT22;16247;50.840;4.382;2022-10-15T09:30:39;17.10;99.90
29207;DHT22;16247;50.840;4.382;2022-10-15T09:33:36;17.10;99.90
29207;DHT22;16247;50.840;4.382;2022-10-15T09:44:32;17.20;99.90
29207;DHT22;16247;50.840;4.382;2022-10-15T09:47:01;17.30;99.90
29207;DHT22;16247;50.840;4.382;2022-10-15T09:49:41;17.10;99.90
29207;DHT22;16247;50.840;4.382;2022-10-15T09:55:36;17.10;99.90
29207;DHT22;16247;50.840;4.382;2022-10-15T09:58:56;17.50;99.90
29207;DHT22;16247;50.840;4.382;2022-10-15T10:01:05;17.60;99.90
29207;DHT22;16247;50.840;4.382;2022-10-15T10:03:35;17.70;99.90
29207;DHT22;16247;50.840;4.382;2022-10-15T10:06:11;17.60;99.90
29207;DHT22;16247;50.840;4.382;2022-10-15T10:11:19;17.50;99.90
29207;DHT22;16247;50.840;4.382;2022-10-15T10:13:54;17.50;99.90
29207;DHT22;16247;50.840;4.382;2022-10-15T10:16:23;17.50;99.90
29207;DHT22;16247;50.840;4.382;2022-10-15T10:19:13;17.60;99.90
29207;DHT22;16247;50.840;4.382;2022-10-15T10:21:42;17.70;99.90
29207;DHT22;16247;50.840;4.382;2022-10-15T10:24:27;17.90;99.90
29207;DHT22;16247;50.840;4.382;2022-10-15T10:27:00;18.00;99.90
29207;DHT22;16247;50.840;4.382;2022-10-15T10:29:27;18.20;99.90
29207;DHT22;16247;50.840;4.382;2022-10-15T10:31:54;18.00;99.90
29207;DHT22;16247;50.840;4.382;2022-10-15T10:34:28;18.00;99.90
29207;DHT22;16247;50.840;4.382;2022-10-15T10:36:56;17.90;99.90
29207;DHT22;16247;50.840;4.382;2022-10-15T10:39:32;18.00;99.90
29207;DHT22;16247;50.840;4.382;2022-10-15T10:42:05;18.10;99.90
29207;DHT22;16247;50.840;4.382;2022-10-15T10:44:37;18.20;99.90
29207;DHT22;16247;50.840;4.382;2022-10-15T10:49:43;18.30;99.90
29207;DHT22;16247;50.840;4.382;2022-10-15T10:57:54;18.60;99.90
29207;DHT22;16247;50.840;4.382;2022-10-15T11:02:56;18.60;99.90
29207;DHT22;16247;50.840;4.382;2022-10-15T11:05:26;18.60;99.90
29207;DHT22;16247;50.840;4.382;2022-10-15T11:10:35;18.70;99.90
29207;DHT22;16247;50.840;4.382;2022-10-15T11:21:06;18.90;99.90
29207;DHT22;16247;50.840;4.382;2022-10-15T11:23:54;19.10;99.90
29207;DHT22;16247;50.840;4.382;2022-10-15T11:46:41;19.20;99.90
29207;DHT22;16247;50.840;4.382;2022-10-15T11:49:40;19.20;99.90
29207;DHT22;16247;50.840;4.382;2022-10-15T11:55:13;19.50;99.90
29207;DHT22;16247;50.840;4.382;2022-10-15T11:57:43;19.50;99.90
29207;DHT22;16247;50.840;4.382;2022-10-15T12:03:22;19.40;99.90
29207;DHT22;16247;50.840;4.382;2022-10-15T12:06:03;19.30;99.90
29207;DHT22;16247;50.840;4.382;2022-10-15T12:08:33;19.20;99.90
29207;DHT22;16247;50.840;4.382;2022-10-15T12:14:30;19.10;99.90
29207;DHT22;16247;50.840;4.382;2022-10-15T12:20:38;19.10;99.90
29207;DHT22;16247;50.840;4.382;2022-10-15T12:30:57;18.60;99.90
29207;DHT22;16247;50.840;4.382;2022-10-15T12:37:16;18.30;99.90
29207;DHT22;16247;50.840;4.382;2022-10-15T12:39:47;18.40;99.90
29207;DHT22;16247;50.840;4.382;2022-10-15T12:42:34;18.40;99.90
29207;DHT22;16247;50.840;4.382;2022-10-15T12:45:23;18.50;99.90
29207;DHT22;16247;50.840;4.382;2022-10-15T12:50:30;18.40;99.90
29207;DHT22;16247;50.840;4.382;2022-10-15T12:53:29;18.20;99.90
29207;DHT22;16247;50.840;4.382;2022-10-15T12:56:23;18.20;99.90
29207;DHT22;16247;50.840;4.382;2022-10-15T13:02:41;18.20;99.90
29207;DHT22;16247;50.840;4.382;2022-10-15T13:05:31;18.20;99.90
29207;DHT22;16247;50.840;4.382;2022-10-15T13:08:23;18.30;99.90
29207;DHT22;16247;50.840;4.382;2022-10-15T13:11:03;18.40;99.90
29207;DHT22;16247;50.840;4.382;2022-10-15T13:13:42;18.40;99.90
29207;DHT22;16247;50.840;4.382;2022-10-15T13:16:08;18.40;99.90
29207;DHT22;16247;50.840;4.382;2022-10-15T13:18:34;18.40;99.90
29207;DHT22;16247;50.840;4.382;2022-10-15T13:21:04;18.30;99.90
29207;DHT22;16247;50.840;4.382;2022-10-15T13:23:32;18.20;99.90
29207;DHT22;16247;50.840;4.382;2022-10-15T13:26:25;18.10;99.90
29207;DHT22;16247;50.840;4.382;2022-10-15T13:28:57;18.40;99.90
29207;DHT22;16247;50.840;4.382;2022-10-15T13:31:29;18.60;99.90
29207;DHT22;16247;50.840;4.382;2022-10-15T13:34:11;19.10;99.90
29207;DHT22;16247;50.840;4.382;2022-10-15T13:36:38;19.70;99.90
29207;DHT22;16247;50.840;4.382;2022-10-15T13:39:21;19.70;99.90
29207;DHT22;16247;50.840;4.382;2022-10-15T13:41:49;19.50;99.90
29207;DHT22;16247;50.840;4.382;2022-10-15T13:44:22;19.20;99.90
29207;DHT22;16247;50.840;4.382;2022-10-15T13:46:51;19.10;99.90
29207;DHT22;16247;50.840;4.382;2022-10-15T13:49:20;19.10;99.90
29207;DHT22;16247;50.840;4.382;2022-10-15T13:51:49;19.20;99.90
29207;DHT22;16247;50.840;4.382;2022-10-15T13:54:30;19.10;99.90
29207;DHT22;16247;50.840;4.382;2022-10-15T13:56:59;19.20;99.90
29207;DHT22;16247;50.840;4.382;2022-10-15T13:59:30;19.10;99.90
29207;DHT22;16247;50.840;4.382;2022-10-15T14:02:02;19.10;99.90
29207;DHT22;16247;50.840;4.382;2022-10-15T14:04:36;19.20;99.90
29207;DHT22;16247;50.840;4.382;2022-10-15T14:12:14;19.10;99.90
29207;DHT22;16247;50.840;4.382;2022-10-15T14:14:44;18.90;99.90
29207;DHT22;16247;50.840;4.382;2022-10-15T14:17:24;19.00;99.90
29207;DHT22;16247;50.840;4.382;2022-10-15T14:19:54;19.10;99.90
29207;DHT22;16247;50.840;4.382;2022-10-15T14:22:26;19.00;99.90
29207;DHT22;16247;50.840;4.382;2022-10-15T14:24:53;19.00;99.90
29207;DHT22;16247;50.840;4.382;2022-10-15T14:27:22;18.90;99.90
29207;DHT22;16247;50.840;4.382;2022-10-15T14:29:56;18.90;99.90
29207;DHT22;16247;50.840;4.382;2022-10-15T14:32:48;19.10;99.90
29207;DHT22;16247;50.840;4.382;2022-10-15T14:35:35;19.20;99.90
29207;DHT22;16247;50.840;4.382;2022-10-15T14:38:24;19.30;99.90
29207;DHT22;16247;50.840;4.382;2022-10-15T14:43:42;19.40;99.90
29207;DHT22;16247;50.840;4.382;2022-10-15T14:46:40;19.50;99.90
29207;DHT22;16247;50.840;4.382;2022-10-15T14:49:25;19.50;99.90
29207;DHT22;16247;50.840;4.382;2022-10-15T14:51:55;19.40;99.90
29207;DHT22;16247;50.840;4.382;2022-10-15T14:54:30;19.40;99.90
29207;DHT22;16247;50.840;4.382;2022-10-15T14:56:57;19.30;99.90
29207;DHT22;16247;50.840;4.382;2022-10-15T14:59:28;19.30;99.90
29207;DHT22;16247;50.840;4.382;2022-10-15T15:01:59;19.30;99.90
29207;DHT22;16247;50.840;4.382;2022-10-15T15:05:19;19.40;99.90
29207;DHT22;16247;50.840;4.382;2022-10-15T15:21:55;18.80;99.90
29207;DHT22;16247;50.840;4.382;2022-10-15T15:24:42;18.80;99.90
29207;DHT22;16247;50.840;4.382;2022-10-15T15:27:39;18.90;99.90
29207;DHT22;16247;50.840;4.382;2022-10-15T15:33:22;18.60;99.90
29207;DHT22;16247;50.840;4.382;2022-10-15T15:36:14;18.50;99.90
29207;DHT22;16247;50.840;4.382;2022-10-15T15:38:40;18.80;99.90
29207;DHT22;16247;50.840;4.382;2022-10-15T15:41:17;18.90;99.90
29207;DHT22;16247;50.840;4.382;2022-10-15T15:43:44;19.00;99.90
29207;DHT22;16247;50.840;4.382;2022-10-15T15:46:11;19.30;99.90
29207;DHT22;16247;50.840;4.382;2022-10-15T15:48:37;19.00;99.90
29207;DHT22;16247;50.840;4.382;2022-10-15T15:51:25;19.00;99.90
29207;DHT22;16247;50.840;4.382;2022-10-15T15:53:51;18.90;99.90
29207;DHT22;16247;50.840;4.382;2022-10-15T15:56:17;18.90;99.90
29207;DHT22;16247;50.840;4.382;2022-10-15T15:58:43;18.90;99.90
29207;DHT22;16247;50.840;4.382;2022-10-15T16:01:10;18.70;99.90
29207;DHT22;16247;50.840;4.382;2022-10-15T16:03:47;18.50;99.90
29207;DHT22;16247;50.840;4.382;2022-10-15T16:06:13;18.60;99.90
29207;DHT22;16247;50.840;4.382;2022-10-15T16:08:40;18.40;99.90
29207;DHT22;16247;50.840;4.382;2022-10-15T16:11:07;18.30;99.90
29207;DHT22;16247;50.840;4.382;2022-10-15T16:13:33;18.20;99.90
29207;DHT22;16247;50.840;4.382;2022-10-15T16:16:02;18.00;99.90
29207;DHT22;16247;50.840;4.382;2022-10-15T16:18:30;17.90;99.90
29207;DHT22;16247;50.840;4.382;2022-10-15T16:20:56;17.80;99.90
29207;DHT22;16247;50.840;4.382;2022-10-15T16:23:23;17.80;99.90
29207;DHT22;16247;50.840;4.382;2022-10-15T16:25:49;17.70;99.90
29207;DHT22;16247;50.840;4.382;2022-10-15T16:28:15;17.60;99.90
29207;DHT22;16247;50.840;4.382;2022-10-15T16:30:41;17.60;99.90
29207;DHT22;16247;50.840;4.382;2022-10-15T16:33:08;17.50;99.90
29207;DHT22;16247;50.840;4.382;2022-10-15T16:35:36;17.50;99.90
29207;DHT22;16247;50.840;4.382;2022-10-15T16:38:02;17.40;99.90
29207;DHT22;16247;50.840;4.382;2022-10-15T16:40:28;17.30;99.90
29207;DHT22;16247;50.840;4.382;2022-10-15T16:42:54;17.30;99.90
29207;DHT22;16247;50.840;4.382;2022-10-15T16:45:25;17.40;99.90
29207;DHT22;16247;50.840;4.382;2022-10-15T16:47:51;17.30;99.90
29207;DHT22;16247;50.840;4.382;2022-10-15T16:50:19;17.20;99.90
29207;DHT22;16247;50.840;4.382;2022-10-15T16:52:46;17.10;99.90
29207;DHT22;16247;50.840;4.382;2022-10-15T16:55:12;17.10;99.90
29207;DHT22;16247;50.840;4.382;2022-10-15T16:57:39;17.10;99.90
29207;DHT22;16247;50.840;4.382;2022-10-15T17:00:07;17.10;99.90
29207;DHT22;16247;50.840;4.382;2022-10-15T17:02:34;17.00;99.90
29207;DHT22;16247;50.840;4.382;2022-10-15T17:05:01;16.90;99.90
29207;DHT22;16247;50.840;4.382;2022-10-15T17:07:27;16.90;99.90
29207;DHT22;16247;50.840;4.382;2022-10-15T17:09:53;16.80;99.90
29207;DHT22;16247;50.840;4.382;2022-10-15T17:12:23;16.90;99.90
29207;DHT22;16247;50.840;4.382;2022-10-15T17:14:50;16.70;99.90
29207;DHT22;16247;50.840;4.382;2022-10-15T17:17:16;16.80;99.90
29207;DHT22;16247;50.840;4.382;2022-10-15T17:19:41;16.90;99.90
29207;DHT22;16247;50.840;4.382;2022-10-15T17:22:07;16.70;99.90
29207;DHT22;16247;50.840;4.382;2022-10-15T17:24:34;16.70;99.90
29207;DHT22;16247;50.840;4.382;2022-10-15T17:27:08;16.60;99.90
29207;DHT22;16247;50.840;4.382;2022-10-15T17:29:34;16.80;99.90
29207;DHT22;16247;50.840;4.382;2022-10-15T17:32:00;16.70;99.90
29207;DHT22;16247;50.840;4.382;2022-10-15T17:34:27;16.70;99.90
29207;DHT22;16247;50.840;4.382;2022-10-15T17:36:54;16.60;99.90
29207;DHT22;16247;50.840;4.382;2022-10-15T17:39:20;16.60;99.90
29207;DHT22;16247;50.840;4.382;2022-10-15T17:41:48;16.50;99.90
29207;DHT22;16247;50.840;4.382;2022-10-15T17:44:16;16.50;99.90
29207;DHT22;16247;50.840;4.382;2022-10-15T17:46:52;16.60;99.90
29207;DHT22;16247;50.840;4.382;2022-10-15T17:49:18;16.40;99.90
29207;DHT22;16247;50.840;4.382;2022-10-15T17:51:45;16.80;99.90
29207;DHT22;16247;50.840;4.382;2022-10-15T17:54:11;16.80;99.90
29207;DHT22;16247;50.840;4.382;2022-10-15T17:56:40;16.70;99.90
29207;DHT22;16247;50.840;4.382;2022-10-15T17:59:10;16.40;99.90
29207;DHT22;16247;50.840;4.382;2022-10-15T18:01:39;16.40;99.90
29207;DHT22;16247;50.840;4.382;2022-10-15T18:04:06;16.40;99.90
29207;DHT22;16247;50.840;4.382;2022-10-15T18:06:33;16.40;99.90
29207;DHT22;16247;50.840;4.382;2022-10-15T18:09:00;16.40;99.90
29207;DHT22;16247;50.840;4.382;2022-10-15T18:11:31;16.30;99.90
29207;DHT22;16247;50.840;4.382;2022-10-15T18:13:57;16.30;99.90
29207;DHT22;16247;50.840;4.382;2022-10-15T18:16:24;16.30;99.90
29207;DHT22;16247;50.840;4.382;2022-10-15T18:18:53;16.30;99.90
29207;DHT22;16247;50.840;4.382;2022-10-15T18:21:24;16.20;99.90
29207;DHT22;16247;50.840;4.382;2022-10-15T18:23:49;16.20;99.90
29207;DHT22;16247;50.840;4.382;2022-10-15T18:26:18;16.10;99.90
29207;DHT22;16247;50.840;4.382;2022-10-15T18:28:46;16.00;99.90
29207;DHT22;16247;50.840;4.382;2022-10-15T18:31:12;16.20;99.90
29207;DHT22;16247;50.840;4.382;2022-10-15T18:33:42;16.30;99.90
29207;DHT22;16247;50.840;4.382;2022-10-15T18:36:15;16.20;99.90
29207;DHT22;16247;50.840;4.382;2022-10-15T18:38:43;16.20;99.90
29207;DHT22;16247;50.840;4.382;2022-10-15T18:41:20;16.20;99.90
29207;DHT22;16247;50.840;4.382;2022-10-15T18:43:52;16.30;99.90
29207;DHT22;16247;50.840;4.382;2022-10-15T18:46:18;16.30;99.90
29207;DHT22;16247;50.840;4.382;2022-10-15T18:48:45;16.10;99.90
29207;DHT22;16247;50.840;4.382;2022-10-15T18:51:12;16.10;99.90
29207;DHT22;16247;50.840;4.382;2022-10-15T18:53:38;16.10;99.90
29207;DHT22;16247;50.840;4.382;2022-10-15T18:56:05;16.20;99.90
29207;DHT22;16247;50.840;4.382;2022-10-15T18:58:36;16.20;99.90
29207;DHT22;16247;50.840;4.382;2022-10-15T19:07:03;16.10;99.90
29207;DHT22;16247;50.840;4.382;2022-10-15T19:09:30;16.00;99.90
29207;DHT22;16247;50.840;4.382;2022-10-15T19:11:59;16.20;99.90
29207;DHT22;16247;50.840;4.382;2022-10-15T19:14:27;16.20;99.90
29207;DHT22;16247;50.840;4.382;2022-10-15T19:16:53;16.30;99.90
29207;DHT22;16247;50.840;4.382;2022-10-15T19:19:22;16.20;99.90
29207;DHT22;16247;50.840;4.382;2022-10-15T19:21:49;16.30;99.90
29207;DHT22;16247;50.840;4.382;2022-10-15T19:24:16;16.10;99.90
29207;DHT22;16247;50.840;4.382;2022-10-15T19:26:42;16.10;99.90
29207;DHT22;16247;50.840;4.382;2022-10-15T19:29:08;15.90;99.90
29207;DHT22;16247;50.840;4.382;2022-10-15T19:31:40;16.00;99.90
29207;DHT22;16247;50.840;4.382;2022-10-15T19:34:06;16.00;99.90
29207;DHT22;16247;50.840;4.382;2022-10-15T19:36:38;16.00;99.90
29207;DHT22;16247;50.840;4.382;2022-10-15T19:39:12;15.90;99.90
29207;DHT22;16247;50.840;4.382;2022-10-15T19:41:39;15.90;99.90
29207;DHT22;16247;50.840;4.382;2022-10-15T19:44:09;15.90;99.90
29207;DHT22;16247;50.840;4.382;2022-10-15T19:46:41;15.80;99.90
29207;DHT22;16247;50.840;4.382;2022-10-15T19:49:10;15.90;99.90
29207;DHT22;16247;50.840;4.382;2022-10-15T19:51:36;15.90;99.90
29207;DHT22;16247;50.840;4.382;2022-10-15T19:54:03;16.00;99.90
29207;DHT22;16247;50.840;4.382;2022-10-15T19:56:36;16.00;99.90
29207;DHT22;16247;50.840;4.382;2022-10-15T19:59:04;15.90;99.90
29207;DHT22;16247;50.840;4.382;2022-10-15T20:01:31;15.80;99.90
29207;DHT22;16247;50.840;4.382;2022-10-15T20:04:16;15.90;99.90
29207;DHT22;16247;50.840;4.382;2022-10-15T20:06:42;15.70;99.90
29207;DHT22;16247;50.840;4.382;2022-10-15T20:09:08;15.70;99.90
29207;DHT22;16247;50.840;4.382;2022-10-15T20:11:36;15.70;99.90
29207;DHT22;16247;50.840;4.382;2022-10-15T20:14:03;15.90;99.90
29207;DHT22;16247;50.840;4.382;2022-10-15T20:16:31;15.60;99.90
29207;DHT22;16247;50.840;4.382;2022-10-15T20:19:03;15.80;99.90
29207;DHT22;16247;50.840;4.382;2022-10-15T20:21:34;15.60;99.90
29207;DHT22;16247;50.840;4.382;2022-10-15T20:24:26;15.50;99.90
29207;DHT22;16247;50.840;4.382;2022-10-15T20:26:55;15.40;99.90
29207;DHT22;16247;50.840;4.382;2022-10-15T20:29:25;15.50;99.90
29207;DHT22;16247;50.840;4.382;2022-10-15T20:31:53;15.50;99.90
29207;DHT22;16247;50.840;4.382;2022-10-15T20:34:23;15.40;99.90
29207;DHT22;16247;50.840;4.382;2022-10-15T20:37:02;15.50;99.90
29207;DHT22;16247;50.840;4.382;2022-10-15T20:42:55;15.40;99.90
29207;DHT22;16247;50.840;4.382;2022-10-15T20:45:39;15.30;99.90
29207;DHT22;16247;50.840;4.382;2022-10-15T20:48:14;15.30;99.90
29207;DHT22;16247;50.840;4.382;2022-10-15T20:50:45;15.40;99.90
29207;DHT22;16247;50.840;4.382;2022-10-15T20:53:12;15.20;99.90
29207;DHT22;16247;50.840;4.382;2022-10-15T20:55:38;15.40;99.90
29207;DHT22;16247;50.840;4.382;2022-10-15T20:58:06;15.20;99.90
29207;DHT22;16247;50.840;4.382;2022-10-15T21:00:32;15.30;99.90
29207;DHT22;16247;50.840;4.382;2022-10-15T21:02:58;15.30;99.90
29207;DHT22;16247;50.840;4.382;2022-10-15T21:05:24;15.10;99.90
29207;DHT22;16247;50.840;4.382;2022-10-15T21:07:58;15.20;99.90
29207;DHT22;16247;50.840;4.382;2022-10-15T21:10:27;15.40;99.90
29207;DHT22;16247;50.840;4.382;2022-10-15T21:12:54;15.30;99.90
29207;DHT22;16247;50.840;4.382;2022-10-15T21:15:21;15.20;99.90
29207;DHT22;16247;50.840;4.382;2022-10-15T21:18:02;15.20;99.90
29207;DHT22;16247;50.840;4.382;2022-10-15T21:20:37;15.40;99.90
29207;DHT22;16247;50.840;4.382;2022-10-15T21:26:11;15.40;99.90
29207;DHT22;16247;50.840;4.382;2022-10-15T21:28:40;15.20;99.90
29207;DHT22;16247;50.840;4.382;2022-10-15T21:31:15;15.20;99.90
29207;DHT22;16247;50.840;4.382;2022-10-15T21:33:45;15.40;99.90
29207;DHT22;16247;50.840;4.382;2022-10-15T21:36:19;15.20;99.90
29207;DHT22;16247;50.840;4.382;2022-10-15T21:39:07;15.10;99.90
29207;DHT22;16247;50.840;4.382;2022-10-15T21:41:34;15.20;99.90
29207;DHT22;16247;50.840;4.382;2022-10-15T21:44:02;15.20;99.90
29207;DHT22;16247;50.840;4.382;2022-10-15T21:46:33;15.20;99.90
29207;DHT22;16247;50.840;4.382;2022-10-15T21:49:00;15.20;99.90
29207;DHT22;16247;50.840;4.382;2022-10-15T21:51:30;15.10;99.90
29207;DHT22;16247;50.840;4.382;2022-10-15T21:57:29;15.10;99.90
29207;DHT22;16247;50.840;4.382;2022-10-15T22:00:53;15.20;99.90
29207;DHT22;16247;50.840;4.382;2022-10-15T22:03:43;14.90;99.90
29207;DHT22;16247;50.840;4.382;2022-10-15T22:06:37;14.90;99.90
29207;DHT22;16247;50.840;4.382;2022-10-15T22:11:49;15.10;99.90
29207;DHT22;16247;50.840;4.382;2022-10-15T22:14:29;15.00;99.90
29207;DHT22;16247;50.840;4.382;2022-10-15T22:16:56;15.10;99.90
29207;DHT22;16247;50.840;4.382;2022-10-15T22:19:35;15.00;99.90
29207;DHT22;16247;50.840;4.382;2022-10-15T22:22:02;15.10;99.90
29207;DHT22;16247;50.840;4.382;2022-10-15T22:24:33;14.90;99.90
29207;DHT22;16247;50.840;4.382;2022-10-15T22:26:59;15.00;99.90
29207;DHT22;16247;50.840;4.382;2022-10-15T22:29:27;15.10;99.90
29207;DHT22;16247;50.840;4.382;2022-10-15T22:31:53;15.20;99.90
29207;DHT22;16247;50.840;4.382;2022-10-15T22:34:22;15.10;99.90
29207;DHT22;16247;50.840;4.382;2022-10-15T22:36:52;15.10;99.90
29207;DHT22;16247;50.840;4.382;2022-10-15T22:39:18;15.10;99.90
29207;DHT22;16247;50.840;4.382;2022-10-15T22:41:45;15.00;99.90
29207;DHT22;16247;50.840;4.382;2022-10-15T22:44:14;15.00;99.90
29207;DHT22;16247;50.840;4.382;2022-10-15T22:46:41;15.10;99.90
29207;DHT22;16247;50.840;4.382;2022-10-15T22:49:19;15.10;99.90
29207;DHT22;16247;50.840;4.382;2022-10-15T22:51:45;15.00;99.90
29207;DHT22;16247;50.840;4.382;2022-10-15T22:54:11;15.10;99.90
29207;DHT22;16247;50.840;4.382;2022-10-15T22:56:39;15.20;99.90
29207;DHT22;16247;50.840;4.382;2022-10-15T22:59:05;15.10;99.90
29207;DHT22;16247;50.840;4.382;2022-10-15T23:01:34;15.20;99.90
29207;DHT22;16247;50.840;4.382;2022-10-15T23:04:04;15.20;99.90
29207;DHT22;16247;50.840;4.382;2022-10-15T23:06:32;15.10;99.90
29207;DHT22;16247;50.840;4.382;2022-10-15T23:08:59;15.20;99.90
29207;DHT22;16247;50.840;4.382;2022-10-15T23:11:37;15.20;99.90